createdAt,value
2019-03-03T00:01:01.293Z,29.53
2019-03-03T00:03:28.398Z,25.43
2019-03-03T00:05:55.209Z,24.03
2019-03-03T00:08:22.151Z,24.13
2019-03-03T00:10:48.843Z,22.13
2019-03-03T00:13:15.772Z,24.47
2019-03-03T00:15:42.506Z,19.97
2019-03-03T00:18:09.435Z,25.27
2019-03-03T00:20:36.481Z,28.60
2019-03-03T00:23:03.116Z,26.25
2019-03-03T00:25:30.114Z,24.50
2019-03-03T00:27:56.747Z,33.33
2019-03-03T00:30:23.490Z,30.33
2019-03-03T00:32:50.374Z,27.17
2019-03-03T00:35:17.124Z,25.80
2019-03-03T00:37:45.314Z,24.20
2019-03-03T00:40:11.947Z,23.07
2019-03-03T00:42:38.617Z,24.23
2019-03-03T00:45:05.310Z,26.23
2019-03-03T00:47:33.064Z,32.07
2019-03-03T00:49:59.926Z,26.25
2019-03-03T00:52:26.962Z,25.83
2019-03-03T00:54:53.620Z,26.82
2019-03-03T00:57:20.295Z,24.17
2019-03-03T00:59:47.258Z,23.47
2019-03-03T01:02:14.002Z,29.00
2019-03-03T01:04:41.501Z,25.00
2019-03-03T01:07:08.243Z,27.23
2019-03-03T01:09:34.874Z,31.67
2019-03-03T01:12:01.570Z,24.70
2019-03-03T01:14:28.560Z,23.47
2019-03-03T01:16:55.158Z,27.40
2019-03-03T01:19:21.917Z,26.70
2019-03-03T01:21:48.847Z,26.90
2019-03-03T01:24:15.507Z,24.87
2019-03-03T01:26:42.453Z,30.03
2019-03-03T01:29:09.184Z,24.93
2019-03-03T01:31:35.863Z,26.33
2019-03-03T01:34:02.543Z,28.13
2019-03-03T01:36:29.483Z,27.03
2019-03-03T01:38:56.171Z,23.90
2019-03-03T01:41:22.926Z,26.57
2019-03-03T01:43:49.857Z,24.70
2019-03-03T01:46:16.842Z,30.48
2019-03-03T01:48:43.451Z,24.37
2019-03-03T01:51:10.101Z,23.03
2019-03-03T01:53:36.722Z,29.53
2019-03-03T01:56:03.495Z,22.40
2019-03-03T01:58:30.391Z,30.60
2019-03-03T02:00:57.102Z,26.67
2019-03-03T02:03:24.077Z,24.60
2019-03-03T02:05:50.940Z,21.10
2019-03-03T02:08:17.909Z,28.23
2019-03-03T02:10:44.716Z,26.87
2019-03-03T02:13:11.367Z,21.87
2019-03-03T02:15:38.132Z,25.80
2019-03-03T02:18:04.760Z,29.60
2019-03-03T02:20:31.565Z,31.77
2019-03-03T02:22:58.491Z,26.37
2019-03-03T02:25:25.094Z,29.35
2019-03-03T02:27:52.161Z,28.67
2019-03-03T02:30:18.930Z,25.97
2019-03-03T02:32:46.147Z,32.23
2019-03-03T02:35:12.899Z,26.27
2019-03-03T02:37:39.579Z,27.87
2019-03-03T02:40:06.187Z,29.40
2019-03-03T02:42:32.888Z,28.43
2019-03-03T02:44:59.644Z,31.60
2019-03-03T02:47:26.507Z,27.13
2019-03-03T02:49:53.779Z,28.80
2019-03-03T02:52:20.722Z,24.10
2019-03-03T02:54:47.624Z,30.47
2019-03-03T02:57:15.565Z,27.30
2019-03-03T02:59:42.171Z,27.70
2019-03-03T03:02:08.824Z,24.13
2019-03-03T03:04:35.517Z,27.33
2019-03-03T03:07:02.645Z,26.95
2019-03-03T03:09:29.466Z,23.50
2019-03-03T03:11:56.800Z,25.35
2019-03-03T03:14:23.524Z,28.43
2019-03-03T03:16:50.443Z,27.62
2019-03-03T03:19:17.078Z,33.10
2019-03-03T03:21:45.847Z,29.03
2019-03-03T03:24:12.595Z,25.07
2019-03-03T03:26:39.679Z,27.50
2019-03-03T03:29:06.596Z,22.17
2019-03-03T03:31:33.442Z,38.00
2019-03-03T03:34:00.044Z,28.63
2019-03-03T03:36:27.010Z,32.48
2019-03-03T03:38:53.816Z,28.30
2019-03-03T03:41:20.541Z,26.77
2019-03-03T03:43:47.315Z,30.20
2019-03-03T03:46:13.967Z,24.80
2019-03-03T03:48:40.863Z,31.05
2019-03-03T03:51:07.535Z,33.97
2019-03-03T03:53:34.181Z,32.07
2019-03-03T03:56:01.101Z,27.58
2019-03-03T03:58:28.125Z,29.37
2019-03-03T04:00:55.004Z,27.07
2019-03-03T04:03:21.648Z,27.42
2019-03-03T04:05:48.339Z,27.10
2019-03-03T04:08:15.262Z,24.27
2019-03-03T04:10:42.180Z,28.92
2019-03-03T04:13:08.847Z,25.10
2019-03-03T04:15:35.493Z,23.65
2019-03-03T04:18:04.777Z,25.57
2019-03-03T04:20:31.475Z,25.43
2019-03-03T04:23:00.122Z,26.20
2019-03-03T04:25:27.987Z,26.27
2019-03-03T04:27:55.643Z,29.40
2019-03-03T04:30:27.970Z,29.53
2019-03-03T04:32:56.889Z,22.87
2019-03-03T04:35:24.023Z,29.27
2019-03-03T04:37:50.995Z,29.43
2019-03-03T04:40:19.386Z,30.27
2019-03-03T04:42:45.965Z,28.60
2019-03-03T04:45:13.092Z,29.10
2019-03-03T04:47:39.918Z,25.50
2019-03-03T04:50:06.884Z,24.90
2019-03-03T04:52:36.658Z,21.70
2019-03-03T04:55:05.211Z,23.97
2019-03-03T04:57:34.441Z,27.32
2019-03-03T05:00:03.341Z,23.73
2019-03-03T05:02:32.501Z,25.33
2019-03-03T05:04:59.203Z,30.93
2019-03-03T05:07:25.860Z,25.17
2019-03-03T05:09:52.569Z,26.75
2019-03-03T05:12:19.242Z,25.37
2019-03-03T05:14:45.816Z,28.33
2019-03-03T05:17:12.488Z,29.53
2019-03-03T05:19:39.311Z,27.37
2019-03-03T05:22:06.886Z,32.93
2019-03-03T05:24:34.563Z,29.30
2019-03-03T05:27:02.013Z,24.80
2019-03-03T05:29:28.924Z,34.33
2019-03-03T05:31:55.583Z,30.63
2019-03-03T05:34:22.655Z,36.90
2019-03-03T05:36:49.612Z,24.80
2019-03-03T05:39:16.243Z,27.90
2019-03-03T05:41:42.860Z,24.13
2019-03-03T05:44:09.846Z,33.90
2019-03-03T05:46:37.100Z,25.62
2019-03-03T05:49:03.885Z,23.83
2019-03-03T05:51:31.412Z,27.55
2019-03-03T05:53:58.295Z,27.83
2019-03-03T05:56:25.357Z,25.23
2019-03-03T05:58:52.174Z,26.17
2019-03-03T06:01:19.526Z,31.47
2019-03-03T06:03:46.171Z,28.60
2019-03-03T06:06:13.134Z,36.00
2019-03-03T06:08:39.893Z,32.67
2019-03-03T06:11:06.864Z,31.03
2019-03-03T06:13:33.663Z,38.20
2019-03-03T06:16:01.114Z,23.77
2019-03-03T06:18:43.350Z,29.27
2019-03-03T06:21:10.152Z,28.57
2019-03-03T06:23:36.858Z,27.17
2019-03-03T06:26:03.476Z,30.93
2019-03-03T06:28:30.325Z,33.15
2019-03-03T06:30:57.004Z,28.47
2019-03-03T06:33:25.224Z,29.00
2019-03-03T06:35:52.842Z,29.80
2019-03-03T06:38:19.711Z,37.60
2019-03-03T06:40:46.334Z,35.73
2019-03-03T06:43:13.270Z,40.73
2019-03-03T06:45:40.226Z,32.50
2019-03-03T06:48:07.556Z,30.20
2019-03-03T06:50:35.166Z,33.50
2019-03-03T06:53:02.016Z,28.23
2019-03-03T06:55:28.795Z,25.47
2019-03-03T06:57:55.584Z,33.63
2019-03-03T07:00:22.292Z,39.33
2019-03-03T07:02:48.928Z,33.50
2019-03-03T07:05:15.571Z,44.23
2019-03-03T07:10:29.122Z,31.50
2019-03-03T07:12:56.869Z,31.47
2019-03-03T07:15:23.541Z,34.57
2019-03-03T07:17:50.203Z,41.27
2019-03-03T07:20:21.135Z,31.70
2019-03-03T07:22:51.563Z,38.10
2019-03-03T07:25:18.419Z,34.18
2019-03-03T07:27:45.109Z,27.07
2019-03-03T07:30:11.743Z,32.47
2019-03-03T07:32:41.448Z,34.90
2019-03-03T07:35:11.102Z,35.57
2019-03-03T07:37:37.995Z,31.77
2019-03-03T07:40:07.144Z,30.43
2019-03-03T07:42:34.043Z,30.47
2019-03-03T07:45:04.522Z,32.80
2019-03-03T07:47:29.499Z,33.67
2019-03-03T07:49:59.705Z,36.30
2019-03-03T07:52:28.934Z,32.77
2019-03-03T07:54:55.539Z,31.23
2019-03-03T07:57:23.138Z,30.80
2019-03-03T07:59:52.259Z,30.20
2019-03-03T08:02:18.908Z,28.53
2019-03-03T08:04:45.796Z,28.60
2019-03-03T08:07:12.573Z,29.00
2019-03-03T08:09:39.526Z,25.97
2019-03-03T08:12:06.176Z,29.70
2019-03-03T08:14:33.905Z,26.77
2019-03-03T08:17:00.650Z,27.80
2019-03-03T08:19:27.309Z,28.80
2019-03-03T08:29:54.855Z,23.93
2019-03-03T08:32:21.541Z,25.67
2019-03-03T08:34:48.256Z,25.92
2019-03-03T08:37:14.992Z,25.97
2019-03-03T08:39:42.375Z,21.87
2019-03-03T08:42:09.199Z,24.83
2019-03-03T08:44:36.448Z,26.30
2019-03-03T08:47:04.623Z,24.47
2019-03-03T08:49:31.357Z,22.67
2019-03-03T08:51:58.231Z,20.37
2019-03-03T08:54:25.138Z,22.87
2019-03-03T08:56:52.193Z,23.03
2019-03-03T08:59:19.368Z,25.20
2019-03-03T09:01:46.274Z,20.30
2019-03-03T09:04:13.030Z,24.03
2019-03-03T09:06:46.812Z,23.95
2019-03-03T09:09:13.842Z,24.90
2019-03-03T09:14:12.889Z,29.53
2019-03-03T09:16:41.543Z,26.20
2019-03-03T09:19:12.292Z,24.20
2019-03-03T09:21:42.667Z,28.43
2019-03-03T09:24:09.272Z,29.73
2019-03-03T09:26:48.190Z,24.00
2019-03-03T09:29:14.549Z,24.67
2019-03-03T09:34:28.906Z,21.17
2019-03-03T09:36:59.610Z,22.93
2019-03-03T09:39:29.719Z,24.40
2019-03-03T09:41:58.515Z,22.37
2019-03-03T09:44:27.208Z,19.65
2019-03-03T09:46:54.531Z,21.75
2019-03-03T09:49:27.332Z,21.53
2019-03-03T09:51:58.542Z,20.32
2019-03-03T09:54:26.547Z,18.47
2019-03-03T09:56:55.944Z,19.67
2019-03-03T09:59:23.175Z,17.63
2019-03-03T10:01:50.114Z,19.37
2019-03-03T10:04:16.985Z,21.03
2019-03-03T10:06:43.903Z,19.80
2019-03-03T10:09:10.555Z,18.37
2019-03-03T10:11:37.767Z,18.73
2019-03-03T10:14:04.414Z,16.33
2019-03-03T10:16:31.072Z,16.23
2019-03-03T10:21:30.304Z,14.33
2019-03-03T10:23:57.432Z,12.93
2019-03-03T10:26:24.430Z,10.03
2019-03-03T10:28:51.523Z,7.72
2019-03-03T10:31:18.332Z,9.90
2019-03-03T10:33:45.613Z,6.80
2019-03-03T10:36:12.484Z,7.67
2019-03-03T10:38:39.150Z,8.00
2019-03-03T10:41:05.723Z,7.60
2019-03-03T10:43:32.505Z,6.93
2019-03-03T10:45:59.713Z,5.12
2019-03-03T10:48:26.612Z,6.17
2019-03-03T10:50:54.109Z,3.75
2019-03-03T10:53:20.790Z,6.33
2019-03-03T10:55:48.094Z,7.50
2019-03-03T10:58:14.800Z,7.10
2019-03-03T11:00:42.160Z,6.58
2019-03-03T11:03:08.913Z,7.10
2019-03-03T11:05:36.755Z,7.63
2019-03-03T11:10:57.336Z,5.70
2019-03-03T11:13:18.818Z,5.62
2019-03-03T11:15:47.873Z,5.73
2019-03-03T11:21:17.785Z,4.80
2019-03-03T11:23:52.953Z,4.87
2019-03-03T11:26:21.759Z,3.80
2019-03-03T11:28:48.407Z,4.58
2019-03-03T11:31:19.550Z,2.73
2019-03-03T11:33:52.580Z,3.07
2019-03-03T11:36:19.361Z,3.17
2019-03-03T11:41:34.998Z,3.10
2019-03-03T11:44:05.691Z,3.50
2019-03-03T11:46:32.817Z,4.45
2019-03-03T11:49:01.817Z,2.90
2019-03-03T11:51:28.521Z,3.37
2019-03-03T11:53:56.164Z,4.00
2019-03-03T11:56:41.640Z,3.40
2019-03-03T11:59:10.543Z,6.90
2019-03-03T12:01:37.719Z,4.05
2019-03-03T12:04:04.381Z,2.87
2019-03-03T12:06:31.671Z,2.70
2019-03-03T12:08:58.700Z,3.13
2019-03-03T12:11:25.552Z,2.90
2019-03-03T12:16:36.452Z,3.63
2019-03-03T12:19:03.370Z,4.20
2019-03-03T12:21:30.620Z,3.37
2019-03-03T12:23:57.500Z,3.63
2019-03-03T12:26:24.293Z,3.90
2019-03-03T12:28:51.365Z,3.73
2019-03-03T12:31:18.589Z,4.40
2019-03-03T12:33:45.351Z,3.70
2019-03-03T12:36:12.691Z,3.67
2019-03-03T12:38:39.626Z,3.90
2019-03-03T12:41:06.743Z,3.55
2019-03-03T12:43:33.688Z,4.20
2019-03-03T12:46:00.848Z,3.57
2019-03-03T12:48:28.677Z,4.17
2019-03-03T12:50:55.558Z,3.70
2019-03-03T12:53:22.176Z,3.67
2019-03-03T12:55:48.982Z,3.47
2019-03-03T12:58:15.957Z,3.17
2019-03-03T13:00:42.693Z,3.17
2019-03-03T13:03:09.384Z,3.27
2019-03-03T13:05:38.343Z,4.37
2019-03-03T13:08:07.484Z,3.56
2019-03-03T13:10:34.610Z,3.17
2019-03-03T13:13:05.310Z,4.87
2019-03-03T13:15:33.000Z,4.10
2019-03-03T13:18:01.604Z,3.40
2019-03-03T13:20:33.051Z,3.10
2019-03-03T13:23:01.397Z,3.65
2019-03-03T13:25:28.604Z,3.63
2019-03-03T13:27:58.323Z,3.90
2019-03-03T13:30:28.431Z,3.75
2019-03-03T13:32:56.146Z,3.27
2019-03-03T13:35:24.758Z,3.10
2019-03-03T13:37:55.130Z,3.57
2019-03-03T13:45:38.981Z,3.83
2019-03-03T13:48:08.967Z,4.10
2019-03-03T13:50:38.065Z,2.87
2019-03-03T13:53:06.859Z,2.72
2019-03-03T13:55:33.900Z,3.00
2019-03-03T13:58:01.179Z,2.50
2019-03-03T14:00:32.314Z,3.03
2019-03-03T14:02:58.880Z,3.67
2019-03-03T14:05:28.442Z,2.83
2019-03-03T14:07:56.332Z,2.63
2019-03-03T14:10:25.435Z,2.83
2019-03-03T14:12:54.682Z,2.80
2019-03-03T14:15:22.148Z,2.60
2019-03-03T14:17:50.353Z,2.30
2019-03-03T14:20:18.866Z,2.25
2019-03-03T14:22:46.128Z,3.27
2019-03-03T14:25:15.168Z,7.22
2019-03-03T14:27:41.863Z,2.72
2019-03-03T14:32:43.020Z,2.20
2019-03-03T14:35:13.285Z,2.42
2019-03-03T14:37:41.472Z,2.27
2019-03-03T14:40:08.507Z,2.00
2019-03-03T14:42:35.406Z,1.70
2019-03-03T14:45:06.167Z,2.03
2019-03-03T14:47:35.110Z,1.73
2019-03-03T14:50:04.183Z,1.87
2019-03-03T14:52:32.482Z,1.60
2019-03-03T14:54:59.436Z,2.17
2019-03-03T14:57:29.046Z,1.90
2019-03-03T14:59:55.722Z,1.73
2019-03-03T15:02:23.059Z,2.07
2019-03-03T15:04:51.593Z,3.53
2019-03-03T15:07:18.678Z,1.70
2019-03-03T15:09:45.567Z,2.03
2019-03-03T15:12:12.628Z,1.80
2019-03-03T15:14:39.617Z,2.37
2019-03-03T15:17:06.288Z,1.67
2019-03-03T15:19:33.044Z,1.50
2019-03-03T15:22:00.077Z,2.00
2019-03-03T15:24:26.707Z,1.80
2019-03-03T15:26:53.486Z,1.50
2019-03-03T15:29:20.709Z,1.52
2019-03-03T15:31:47.632Z,1.57
2019-03-03T15:34:15.678Z,1.90
2019-03-03T15:36:42.756Z,3.58
2019-03-03T15:39:09.571Z,1.60
2019-03-03T15:41:36.725Z,1.84
2019-03-03T15:44:03.853Z,2.03
2019-03-03T15:46:30.693Z,1.60
2019-03-03T15:48:57.356Z,1.60
2019-03-03T15:51:24.093Z,1.90
2019-03-03T15:53:50.886Z,1.60
2019-03-03T15:56:17.670Z,2.20
2019-03-03T15:58:44.956Z,1.55
2019-03-03T16:01:11.907Z,1.90
2019-03-03T16:03:39.000Z,1.77
2019-03-03T16:06:05.936Z,1.70
2019-03-03T16:08:33.222Z,1.57
2019-03-03T16:10:59.940Z,3.90
2019-03-03T16:13:26.851Z,1.80
2019-03-03T16:15:53.688Z,1.63
2019-03-03T16:18:20.616Z,1.70
2019-03-03T16:20:50.473Z,1.90
2019-03-03T16:23:17.797Z,1.65
2019-03-03T16:25:44.554Z,1.90
2019-03-03T16:28:11.303Z,1.70
2019-03-03T16:30:37.959Z,1.60
2019-03-03T16:33:04.954Z,1.90
2019-03-03T16:35:31.849Z,2.93
2019-03-03T16:37:58.694Z,3.07
2019-03-03T16:40:25.914Z,2.85
2019-03-03T16:42:52.855Z,2.17
2019-03-03T16:45:20.141Z,4.00
2019-03-03T16:47:47.025Z,9.53
2019-03-03T16:50:14.061Z,3.37
2019-03-03T16:52:41.100Z,6.20
2019-03-03T16:55:08.280Z,4.80
2019-03-03T16:57:34.919Z,4.03
2019-03-03T17:00:01.518Z,4.10
2019-03-03T17:02:28.124Z,4.20
2019-03-03T17:04:55.443Z,3.67
2019-03-03T17:07:22.298Z,5.20
2019-03-03T17:09:49.224Z,5.33
2019-03-03T17:12:16.374Z,8.20
2019-03-03T17:14:43.272Z,4.83
2019-03-03T17:17:10.452Z,5.93
2019-03-03T17:36:50.577Z,4.10
2019-03-03T17:51:31.291Z,4.35
2019-03-03T17:58:51.165Z,5.00
2019-03-03T18:01:18.076Z,7.40
